West Lebanon, Indiana
Current Conditions -  °F | °C
As of 6:55 PM on Friday 24 Oct 2014 (Local Time) from KDNV Reporting Station
Clear Clear  
Wind Chill: 17°   Ceiling: Unl
Heat Index: 17°   Visibility: 7mi
Dew Point: 11°   Wind: 5mph
Humidity: 68%   Direction: 220°SW
Pressure: 29.98"   Gusts: NA
Location:  40.27°N, 87.39°W
Report Text: KDNV 242255Z AUTO 22004KT 7SM CLR 17/11 A2998 RMK AO2 T01660107
Loading
Personal Weather Stations






























Interactive Weather Map
Tropical Storm Tracking
New forecast layout! Learn more

10-Day Weather Forecast

Advertisements
Track Severe Weather on mobile